Time,TemperatureF,DewpointF,PressureIn,WindDirection,WindDirectionDegrees,WindSpeedMPH,WindSpeedGustMPH,Humidity,HourlyPrecipIn,Conditions,Clouds,dailyrainin,SoftwareType,DateUTC
2013-04-14 00:01:00,38.0,38.0,29.98,SW,217,0.0,1.0,99,0.00,,,0.30,,2013-04-14 07:01:00,
2013-04-14 00:11:00,38.0,38.0,29.98,SW,217,0.0,1.0,99,0.00,,,0.30,,2013-04-14 07:11:00,
2013-04-14 00:22:00,38.0,38.0,29.98,SW,217,0.0,0.0,99,0.00,,,0.30,,2013-04-14 07:22:00,
2013-04-14 00:32:00,38.0,38.0,29.98,SW,217,0.0,1.0,99,0.00,,,0.30,,2013-04-14 07:32:00,
2013-04-14 00:42:00,38.0,38.0,29.98,SW,217,0.0,1.0,99,0.00,,,0.30,,2013-04-14 07:42:00,
2013-04-14 00:52:00,38.0,38.0,29.98,SW,217,0.0,1.0,99,0.00,,,0.30,,2013-04-14 07:52:00,
2013-04-14 01:01:00,38.0,38.0,29.99,SW,217,0.0,0.0,99,0.00,,,0.30,,2013-04-14 08:01:00,
2013-04-14 01:11:00,38.0,38.0,29.99,SW,217,0.0,0.0,99,0.00,,,0.30,,2013-04-14 08:11:00,
2013-04-14 01:22:00,38.0,38.0,29.99,SW,217,0.0,1.0,99,0.01,,,0.31,,2013-04-14 08:22:00,
2013-04-14 01:31:00,38.0,38.0,29.99,SW,217,0.0,0.0,99,0.01,,,0.31,,2013-04-14 08:31:00,
2013-04-14 01:42:00,38.0,38.0,29.99,SW,217,0.0,0.0,99,0.01,,,0.31,,2013-04-14 08:42:00,
2013-04-14 01:52:00,37.0,37.0,29.99,East,86,0.0,1.0,99,0.02,,,0.32,,2013-04-14 08:52:00,
2013-04-14 02:02:00,37.0,37.0,29.99,East,86,0.0,1.0,99,0.02,,,0.32,,2013-04-14 09:02:00,
2013-04-14 02:11:00,37.0,37.0,29.99,East,86,0.0,1.0,99,0.02,,,0.32,,2013-04-14 09:11:00,
2013-04-14 02:22:00,37.0,37.0,29.99,East,98,0.0,2.0,99,0.01,,,0.32,,2013-04-14 09:22:00,
2013-04-14 02:32:00,37.0,37.0,29.98,East,98,0.0,1.0,99,0.01,,,0.32,,2013-04-14 09:32:00,
2013-04-14 02:42:00,37.0,37.0,29.98,East,98,0.0,1.0,99,0.01,,,0.32,,2013-04-14 09:42:00,
2013-04-14 02:53:00,37.0,37.0,29.98,East,99,0.0,1.0,99,0.01,,,0.33,,2013-04-14 09:53:00,
2013-04-14 03:02:00,37.0,37.0,29.98,East,99,0.0,1.0,100,0.01,,,0.33,,2013-04-14 10:02:00,
2013-04-14 03:12:00,37.0,37.0,29.98,East,99,0.0,1.0,100,0.01,,,0.33,,2013-04-14 10:12:00,
2013-04-14 03:22:00,37.0,37.0,29.98,East,99,0.0,1.0,100,0.01,,,0.33,,2013-04-14 10:22:00,
2013-04-14 03:32:00,37.0,37.0,29.98,East,99,0.0,1.0,100,0.01,,,0.33,,2013-04-14 10:32:00,
2013-04-14 03:42:00,37.0,37.0,29.98,East,99,0.0,1.0,100,0.01,,,0.33,,2013-04-14 10:42:00,
2013-04-14 03:52:00,37.0,37.0,29.98,East,99,0.0,0.0,100,0.00,,,0.33,,2013-04-14 10:52:00,
2013-04-14 04:02:00,38.0,38.0,29.98,East,99,0.0,0.0,100,0.00,,,0.33,,2013-04-14 11:02:00,
2013-04-14 04:12:00,38.0,38.0,29.98,East,99,0.0,0.0,100,0.00,,,0.33,,2013-04-14 11:12:00,
2013-04-14 04:22:00,38.0,38.0,29.98,WSW,246,0.0,0.0,100,0.00,,,0.33,,2013-04-14 11:22:00,
2013-04-14 04:32:00,38.0,38.0,29.98,WSW,245,0.0,1.0,100,0.01,,,0.34,,2013-04-14 11:32:00,
2013-04-14 04:42:00,38.0,38.0,29.98,WSW,245,0.0,1.0,100,0.01,,,0.34,,2013-04-14 11:42:00,
2013-04-14 04:52:00,38.0,38.0,29.98,WSW,246,0.0,0.0,100,0.01,,,0.34,,2013-04-14 11:52:00,
2013-04-14 05:01:00,37.0,37.0,29.98,WSW,246,0.0,0.0,100,0.01,,,0.34,,2013-04-14 12:01:00,
2013-04-14 05:12:00,37.0,37.0,29.98,WSW,246,0.0,0.0,100,0.01,,,0.34,,2013-04-14 12:12:00,
2013-04-14 05:21:00,37.0,37.0,29.98,WSW,246,0.0,0.0,100,0.01,,,0.34,,2013-04-14 12:21:00,
2013-04-14 05:32:00,37.0,37.0,29.98,WSW,245,0.0,0.0,100,0.00,,,0.34,,2013-04-14 12:32:00,
2013-04-14 05:42:00,37.0,37.0,29.98,WSW,245,0.0,0.0,100,0.00,,,0.34,,2013-04-14 12:42:00,
2013-04-14 05:52:00,37.0,37.0,29.98,WSW,246,0.0,0.0,100,0.00,,,0.34,,2013-04-14 12:52:00,
2013-04-14 06:02:00,38.0,38.0,29.98,WSW,246,0.0,0.0,100,0.00,,,0.34,,2013-04-14 13:02:00,
2013-04-14 06:11:00,38.0,38.0,29.98,WSW,246,0.0,0.0,100,0.00,,,0.34,,2013-04-14 13:11:00,
2013-04-14 06:22:00,38.0,38.0,29.98,WSW,246,0.0,0.0,100,0.00,,,0.34,,2013-04-14 13:22:00,
2013-04-14 06:30:00,37.0,37.0,29.98,WSW,246,0.0,0.0,100,0.00,,,0.34,,2013-04-14 13:30:00,
2013-04-14 06:32:00,38.0,38.0,29.98,WSW,246,0.0,0.0,100,0.00,,,0.34,,2013-04-14 13:32:00,
2013-04-14 06:42:00,38.0,38.0,29.98,WSW,246,0.0,0.0,100,0.00,,,0.34,,2013-04-14 13:42:00,
2013-04-14 06:52:00,37.0,37.0,29.98,WSW,246,0.0,0.0,100,0.00,,,0.34,,2013-04-14 13:52:00,
2013-04-14 07:02:00,37.0,37.0,29.98,WSW,246,0.0,0.0,100,0.00,,,0.34,,2013-04-14 14:02:00,
2013-04-14 07:11:00,37.0,37.0,29.98,WSW,246,0.0,0.0,100,0.00,,,0.34,,2013-04-14 14:11:00,
2013-04-14 07:22:00,37.0,37.0,29.98,WSW,246,0.0,0.0,100,0.00,,,0.34,,2013-04-14 14:22:00,
2013-04-14 13:33:00,49.0,40.0,29.94,NE,36,1.0,5.0,71,0.00,,,0.34,,2013-04-14 20:33:00,
2013-04-14 13:43:00,49.0,40.0,29.94,NE,36,1.0,5.0,71,0.00,,,0.34,,2013-04-14 20:43:00,
2013-04-14 13:52:00,49.0,40.0,29.94,ENE,72,2.0,5.0,71,0.00,,,0.34,,2013-04-14 20:52:00,
2013-04-14 14:00:00,49.0,37.0,29.93,West,279,1.0,5.0,63,0.00,,,0.34,,2013-04-14 21:00:00,
2013-04-14 14:02:00,49.0,40.0,29.93,ENE,73,0.0,4.0,70,0.00,,,0.34,,2013-04-14 21:02:00,
2013-04-14 14:12:00,49.0,40.0,29.93,ENE,73,0.0,4.0,70,0.00,,,0.34,,2013-04-14 21:12:00,
2013-04-14 14:22:00,49.0,37.0,29.93,West,279,1.0,5.0,63,0.00,,,0.34,,2013-04-14 21:22:00,
2013-04-14 14:32:00,49.0,37.0,29.93,West,279,1.0,5.0,63,0.00,,,0.34,,2013-04-14 21:32:00,
2013-04-14 14:42:00,49.0,37.0,29.93,West,279,1.0,5.0,63,0.00,,,0.34,,2013-04-14 21:42:00,
2013-04-14 14:53:00,49.0,37.0,29.93,West,279,1.0,5.0,63,0.00,,,0.34,,2013-04-14 21:53:00,
2013-04-14 17:02:00,52.0,38.0,29.90,WNW,303,2.0,5.0,58,0.00,,,0.34,,2013-04-15 00:02:00,
2013-04-14 17:12:00,52.0,38.0,29.90,WNW,303,2.0,5.0,58,0.00,,,0.34,,2013-04-15 00:12:00,
2013-04-14 17:22:00,52.0,38.0,29.90,WNW,303,2.0,5.0,58,0.00,,,0.34,,2013-04-15 00:22:00,
2013-04-14 17:32:00,52.0,37.0,29.89,SSW,213,3.0,7.0,56,0.00,,,0.34,,2013-04-15 00:32:00,
2013-04-14 17:42:00,52.0,37.0,29.89,SSW,213,3.0,7.0,56,0.00,,,0.34,,2013-04-15 00:42:00,
2013-04-14 17:52:00,52.0,37.0,29.90,WSW,252,2.0,6.0,56,0.00,,,0.34,,2013-04-15 00:52:00,
2013-04-14 18:02:00,52.0,38.0,29.90,WSW,244,3.0,8.0,59,0.00,,,0.34,,2013-04-15 01:02:00,
2013-04-14 18:12:00,52.0,38.0,29.90,WSW,244,3.0,8.0,59,0.00,,,0.34,,2013-04-15 01:12:00,
2013-04-14 18:22:00,52.0,37.0,29.90,WSW,254,3.0,7.0,57,0.00,,,0.34,,2013-04-15 01:22:00,
2013-04-14 18:32:00,51.0,40.0,29.90,SSW,205,1.0,8.0,67,0.00,,,0.32,,2013-04-15 01:32:00,
2013-04-14 18:42:00,51.0,40.0,29.90,SSW,205,1.0,8.0,67,0.00,,,0.32,,2013-04-15 01:42:00,
2013-04-14 18:52:00,49.0,38.0,29.90,SSW,202,4.0,7.0,66,0.00,,,0.32,,2013-04-15 01:52:00,
2013-04-14 19:02:00,48.0,39.0,29.91,NE,49,1.0,4.0,71,0.00,,,0.32,,2013-04-15 02:02:00,
2013-04-14 19:11:00,48.0,39.0,29.91,NE,49,1.0,4.0,71,0.00,,,0.32,,2013-04-15 02:11:00,
2013-04-14 19:22:00,46.0,39.0,29.91,East,86,3.0,13.0,76,0.00,,,0.32,,2013-04-15 02:22:00,
2013-04-14 19:31:00,45.0,39.0,29.91,ENE,60,1.0,8.0,80,0.00,,,0.26,,2013-04-15 02:31:00,
2013-04-14 19:42:00,45.0,39.0,29.91,ENE,60,1.0,8.0,80,0.00,,,0.26,,2013-04-15 02:42:00,
2013-04-14 19:52:00,44.0,40.0,29.91,ENE,65,0.0,1.0,86,0.00,,,0.26,,2013-04-15 02:52:00,
2013-04-14 20:02:00,44.0,40.0,29.91,ENE,72,0.0,5.0,87,0.00,,,0.26,,2013-04-15 03:02:00,
2013-04-14 20:11:00,44.0,40.0,29.91,ENE,72,0.0,5.0,87,0.00,,,0.26,,2013-04-15 03:11:00,
2013-04-14 20:22:00,43.0,40.0,29.92,ENE,72,0.0,1.0,90,0.01,,,0.27,,2013-04-15 03:22:00,
2013-04-14 20:32:00,42.0,40.0,29.93,ENE,72,0.0,0.0,92,0.02,,,0.26,,2013-04-15 03:32:00,
2013-04-14 20:42:00,42.0,40.0,29.93,ENE,72,0.0,0.0,92,0.02,,,0.26,,2013-04-15 03:42:00,
2013-04-14 20:54:00,42.0,40.0,29.92,ENE,78,0.0,1.0,94,0.04,,,0.28,,2013-04-15 03:54:00,
2013-04-14 21:02:00,41.0,39.0,29.93,ENE,78,0.0,0.0,94,0.06,,,0.30,,2013-04-15 04:02:00,
2013-04-14 21:12:00,41.0,39.0,29.93,ENE,78,0.0,0.0,94,0.06,,,0.30,,2013-04-15 04:12:00,
2013-04-14 21:22:00,41.0,40.0,29.92,SE,144,0.0,1.0,95,0.05,,,0.30,,2013-04-15 04:22:00,
2013-04-14 21:32:00,40.0,39.0,29.93,SE,144,0.0,1.0,96,0.04,,,0.20,,2013-04-15 04:32:00,
2013-04-14 21:42:00,40.0,39.0,29.93,SE,144,0.0,1.0,96,0.04,,,0.20,,2013-04-15 04:42:00,
2013-04-14 21:52:00,40.0,39.0,29.93,SE,144,0.0,1.0,96,0.04,,,0.20,,2013-04-15 04:52:00,
2013-04-14 22:02:00,39.0,38.0,29.93,SE,144,0.0,0.0,97,0.00,,,0.20,,2013-04-15 05:02:00,
2013-04-14 22:12:00,39.0,38.0,29.93,SE,144,0.0,0.0,97,0.00,,,0.20,,2013-04-15 05:12:00,
2013-04-14 22:22:00,39.0,38.0,29.93,SE,144,0.0,0.0,97,0.00,,,0.20,,2013-04-15 05:22:00,
2013-04-14 22:32:00,39.0,38.0,29.93,SE,144,0.0,0.0,97,0.00,,,0.20,,2013-04-15 05:32:00,
2013-04-14 22:42:00,39.0,38.0,29.93,SE,144,0.0,0.0,97,0.00,,,0.20,,2013-04-15 05:42:00,
2013-04-14 22:52:00,39.0,38.0,29.93,South,179,0.0,0.0,97,0.00,,,0.10,,2013-04-15 05:52:00,
2013-04-14 23:02:00,39.0,38.0,29.93,South,179,0.0,0.0,97,0.00,,,0.10,,2013-04-15 06:02:00,
2013-04-14 23:12:00,39.0,38.0,29.93,South,179,0.0,0.0,97,0.00,,,0.10,,2013-04-15 06:12:00,
2013-04-14 23:22:00,39.0,38.0,29.93,South,179,0.0,0.0,97,0.00,,,0.10,,2013-04-15 06:22:00,
2013-04-14 23:32:00,39.0,38.0,29.94,South,179,0.0,0.0,98,0.00,,,0.10,,2013-04-15 06:32:00,
2013-04-14 23:42:00,39.0,38.0,29.94,South,179,0.0,0.0,98,0.00,,,0.10,,2013-04-15 06:42:00,
2013-04-14 23:52:00,39.0,38.0,29.93,South,179,0.0,0.0,98,0.00,,,0.10,,2013-04-15 06:52:00,